Time;durP1;ratioP1;P1;durP2;ratioP2;P2;SDS_P1;SDS_P2;PMS_P1;PMS_P2;Temp;Humidity;BMP_temperature;BMP_pressure;BME280_temperature;BME280_humidity;BME280_pressure;Samples;Min_cycle;Max_cycle;Signal;HPM_P1;HPM_P2
2022/12/09 00:00:37;;;;;;;0.40;0.40;;;14.10;82.20;;;;;;5095659;28;20533;-64
2022/12/09 00:03:26;;;;;;;1.87;1.77;;;14.10;82.60;;;;;;5095358;28;20207;-63
2022/12/09 00:06:17;;;;;;;0.40;0.40;;;14.10;82.50;;;;;;5096235;28;20204;-64
2022/12/09 00:09:05;;;;;;;0.43;0.43;;;14.20;82.30;;;;;;5095159;28;20203;-65
2022/12/09 00:11:53;;;;;;;0.40;0.40;;;14.20;82.00;;;;;;5095143;28;20220;-63
2022/12/09 00:14:41;;;;;;;0.40;0.40;;;14.10;81.70;;;;;;5094538;28;20676;-63
2022/12/09 00:17:30;;;;;;;5.97;2.63;;;14.20;81.60;;;;;;5096051;28;20206;-63
2022/12/09 00:20:19;;;;;;;0.40;0.40;;;14.20;81.70;;;;;;5094988;28;20627;-64
2022/12/09 00:23:07;;;;;;;0.40;0.40;;;14.20;81.90;;;;;;5095049;28;20220;-64
2022/12/09 00:25:57;;;;;;;0.40;0.40;;;14.20;81.60;;;;;;5095693;28;20197;-62
2022/12/09 00:28:45;;;;;;;0.40;0.40;;;14.20;81.30;;;;;;5095049;28;20281;-63
2022/12/09 00:31:36;;;;;;;0.40;0.40;;;14.10;81.40;;;;;;5093338;28;20310;-63
2022/12/09 00:34:24;;;;;;;0.40;0.40;;;14.10;81.10;;;;;;5095801;28;20418;-63
2022/12/09 00:37:13;;;;;;;0.60;0.60;;;14.10;81.20;;;;;;5095121;28;20233;-64
2022/12/09 00:40:01;;;;;;;2.23;2.03;;;14.00;80.90;;;;;;5095122;28;20200;-63
2022/12/09 00:42:50;;;;;;;0.40;0.40;;;14.00;80.80;;;;;;5094792;28;20591;-63
2022/12/09 00:45:38;;;;;;;0.40;0.40;;;13.90;81.30;;;;;;5095242;28;20196;-63
2022/12/09 00:48:27;;;;;;;13.87;2.87;;;13.90;81.40;;;;;;5094385;28;20578;-64
2022/12/09 00:51:16;;;;;;;0.40;0.40;;;13.80;81.10;;;;;;5094895;28;20575;-62
2022/12/09 00:54:06;;;;;;;0.40;0.40;;;13.90;81.30;;;;;;5095371;28;20226;-63
2022/12/09 00:56:55;;;;;;;0.40;0.40;;;13.80;81.30;;;;;;5086514;28;20618;-65
2022/12/09 00:59:43;;;;;;;0.40;0.40;;;13.80;81.40;;;;;;5074940;28;20201;-62
2022/12/09 01:02:32;;;;;;;0.40;0.40;;;13.80;81.90;;;;;;5075088;28;20219;-65
2022/12/09 01:05:20;;;;;;;0.40;0.40;;;13.80;81.90;;;;;;5074938;28;20672;-63
2022/12/09 01:08:09;;;;;;;0.40;0.40;;;13.80;82.20;;;;;;5075099;28;20279;-63
2022/12/09 01:10:58;;;;;;;0.60;0.60;;;13.80;82.40;;;;;;5074595;28;20208;-63
2022/12/09 01:13:47;;;;;;;0.40;0.40;;;13.90;82.40;;;;;;5075522;28;20223;-67
2022/12/09 01:16:36;;;;;;;1.00;1.00;;;13.90;82.40;;;;;;5074149;28;20201;-63
2022/12/09 01:19:24;;;;;;;0.40;0.40;;;14.00;82.60;;;;;;5072555;28;20197;-63
2022/12/09 01:22:12;;;;;;;0.40;0.40;;;14.00;82.40;;;;;;5073779;28;20223;-62
2022/12/09 01:25:00;;;;;;;0.40;0.40;;;14.00;82.10;;;;;;5074080;28;20203;-63
2022/12/09 01:27:50;;;;;;;0.40;0.40;;;14.10;82.00;;;;;;5073583;28;20205;-62
2022/12/09 01:30:38;;;;;;;0.40;0.40;;;14.10;82.10;;;;;;5073296;28;20200;-63
2022/12/09 01:33:26;;;;;;;0.40;0.40;;;14.10;81.90;;;;;;5073518;28;20227;-63
2022/12/09 01:36:16;;;;;;;0.40;0.40;;;14.10;81.70;;;;;;5073015;28;20289;-63
2022/12/09 01:39:05;;;;;;;0.40;0.40;;;14.20;81.10;;;;;;5074224;28;20796;-67
2022/12/09 01:41:53;;;;;;;0.43;0.43;;;14.10;81.70;;;;;;5073694;28;20216;-63
2022/12/09 01:45:15;;;;;;;0.40;0.40;;;14.20;81.20;;;;;;5073265;28;20321;-66
2022/12/09 01:48:10;;;;;;;0.40;0.40;;;14.20;81.60;;;;;;5074207;28;20197;-63
2022/12/09 01:51:01;;;;;;;0.40;0.40;;;14.10;80.50;;;;;;5073470;28;20669;-65
2022/12/09 01:53:51;;;;;;;0.40;0.40;;;14.10;80.90;;;;;;5073435;28;20213;-63
2022/12/09 01:56:40;;;;;;;10.10;3.33;;;14.10;80.90;;;;;;5079013;28;20235;-64
2022/12/09 01:59:28;;;;;;;0.40;0.40;;;14.10;81.10;;;;;;5093683;28;20196;-64
2022/12/09 02:02:18;;;;;;;0.47;0.47;;;14.00;81.00;;;;;;5094297;28;20227;-63
2022/12/09 02:05:09;;;;;;;0.40;0.40;;;14.00;81.10;;;;;;5093016;28;20241;-63
2022/12/09 02:07:58;;;;;;;2.13;2.03;;;14.00;81.20;;;;;;5093685;28;20200;-63
2022/12/09 02:10:52;;;;;;;0.60;0.60;;;13.90;81.30;;;;;;5093055;28;20219;-62
2022/12/09 02:13:47;;;;;;;0.40;0.40;;;13.90;81.20;;;;;;5093360;28;20220;-63
2022/12/09 02:16:40;;;;;;;0.40;0.40;;;13.90;81.30;;;;;;5092563;28;20207;-63
2022/12/09 02:19:48;;;;;;;0.40;0.40;;;13.90;81.30;;;;;;5105621;28;20195;-65
2022/12/09 02:22:42;;;;;;;0.40;0.40;;;13.80;81.30;;;;;;5086756;28;20224;-65
2022/12/09 02:25:38;;;;;;;0.40;0.40;;;13.80;81.40;;;;;;5073563;28;20804;-64
2022/12/09 02:29:01;;;;;;;0.40;0.40;;;13.80;81.70;;;;;;5073136;28;20432;-63
2022/12/09 02:32:14;;;;;;;0.40;0.40;;;13.80;82.20;;;;;;5073231;28;20224;-63
2022/12/09 02:35:09;;;;;;;0.40;0.40;;;13.90;82.10;;;;;;5073122;28;20246;-67
2022/12/09 02:38:03;;;;;;;0.40;0.40;;;14.00;82.60;;;;;;5073799;28;20193;-63
2022/12/09 02:40:56;;;;;;;0.40;0.40;;;14.10;82.50;;;;;;5073409;28;20591;-63
2022/12/09 02:43:49;;;;;;;0.40;0.40;;;14.20;82.20;;;;;;5073333;28;20272;-63
2022/12/09 02:46:40;;;;;;;0.80;0.80;;;14.20;81.90;;;;;;5073041;28;20204;-65
2022/12/09 02:49:30;;;;;;;0.40;0.40;;;14.20;82.00;;;;;;5073376;28;20204;-63
2022/12/09 02:52:21;;;;;;;0.40;0.40;;;14.50;82.00;;;;;;5072640;28;20231;-63
2022/12/09 02:55:13;;;;;;;0.40;0.40;;;14.30;81.60;;;;;;5073363;28;20220;-63
2022/12/09 02:58:01;;;;;;;0.40;0.40;;;14.30;81.30;;;;;;5072791;28;20201;-64
2022/12/09 03:00:51;;;;;;;1.53;1.53;;;14.30;81.20;;;;;;5073216;28;20232;-65
2022/12/09 03:03:40;;;;;;;0.40;0.40;;;14.30;81.00;;;;;;5073118;28;20197;-63
2022/12/09 03:06:33;;;;;;;0.40;0.40;;;14.30;81.00;;;;;;5073671;28;20201;-65
2022/12/09 03:09:26;;;;;;;0.45;0.45;;;14.30;81.10;;;;;;5071742;28;20205;-66
2022/12/09 03:12:19;;;;;;;0.40;0.40;;;14.30;80.90;;;;;;5072750;28;20228;-63
2022/12/09 03:15:12;;;;;;;0.40;0.40;;;14.30;80.80;;;;;;5072176;28;20309;-63
2022/12/09 03:18:03;;;;;;;0.40;0.40;;;14.30;80.80;;;;;;5072077;28;20228;-66
2022/12/09 03:20:52;;;;;;;0.40;0.40;;;14.30;81.00;;;;;;5071654;28;20280;-63
2022/12/09 03:23:43;;;;;;;0.40;0.40;;;14.20;80.70;;;;;;5072523;28;20192;-65
2022/12/09 03:26:33;;;;;;;0.40;0.40;;;14.20;80.90;;;;;;5075025;28;20232;-63
2022/12/09 03:29:27;;;;;;;0.40;0.40;;;14.20;81.10;;;;;;5075436;28;20231;-63
2022/12/09 03:32:19;;;;;;;0.40;0.40;;;14.10;80.90;;;;;;5076222;28;20224;-64
2022/12/09 03:35:11;;;;;;;0.40;0.40;;;14.00;81.00;;;;;;5076640;28;20217;-63
2022/12/09 03:38:03;;;;;;;0.45;0.45;;;14.00;80.90;;;;;;5076191;28;20204;-63
2022/12/09 03:41:04;;;;;;;0.40;0.40;;;14.00;81.30;;;;;;5074249;28;20200;-66
2022/12/09 03:43:57;;;;;;;0.40;0.40;;;13.90;81.00;;;;;;5076396;28;20294;-64
2022/12/09 03:46:46;;;;;;;0.40;0.40;;;13.90;81.30;;;;;;5075149;28;20196;-64
2022/12/09 03:49:35;;;;;;;0.40;0.40;;;13.90;81.10;;;;;;5075252;28;20196;-63
2022/12/09 03:52:31;;;;;;;0.40;0.40;;;13.90;81.50;;;;;;5076036;28;20229;-63
2022/12/09 03:55:25;;;;;;;0.40;0.40;;;13.90;81.80;;;;;;5075134;28;20216;-63
2022/12/09 03:58:15;;;;;;;0.80;0.80;;;13.90;81.90;;;;;;5075522;28;20585;-64
2022/12/09 04:01:06;;;;;;;0.40;0.40;;;14.00;82.50;;;;;;5075477;28;20232;-66
2022/12/09 04:03:56;;;;;;;0.63;0.63;;;14.10;82.30;;;;;;5075220;28;20514;-64
2022/12/09 04:06:45;;;;;;;0.40;0.40;;;14.20;82.00;;;;;;5075590;28;20691;-64
2022/12/09 04:09:33;;;;;;;0.40;0.40;;;14.30;82.10;;;;;;5075333;28;20561;-63
2022/12/09 04:12:21;;;;;;;0.40;0.40;;;14.30;81.70;;;;;;5075041;28;20217;-63
2022/12/09 04:15:09;;;;;;;0.50;0.50;;;14.30;81.70;;;;;;5075190;28;20359;-64
2022/12/09 04:17:59;;;;;;;0.40;0.40;;;14.30;81.60;;;;;;5066986;28;20428;-63
2022/12/09 04:20:47;;;;;;;0.40;0.40;;;14.30;81.30;;;;;;5054923;28;20215;-64
2022/12/09 04:23:36;;;;;;;0.40;0.40;;;14.40;81.50;;;;;;5055309;28;20263;-63
2022/12/09 04:26:30;;;;;;;0.40;0.40;;;14.40;81.00;;;;;;5054585;28;20197;-62
2022/12/09 04:29:18;;;;;;;0.40;0.40;;;14.40;81.10;;;;;;5055888;28;20271;-65
2022/12/09 04:32:07;;;;;;;1.10;1.10;;;14.40;81.10;;;;;;5054072;28;20245;-65
2022/12/09 04:34:57;;;;;;;0.40;0.40;;;14.40;80.70;;;;;;5055562;28;20231;-63
2022/12/09 04:37:45;;;;;;;0.40;0.40;;;14.40;80.80;;;;;;5054956;28;20204;-63
2022/12/09 04:40:33;;;;;;;0.40;0.40;;;14.30;80.70;;;;;;5053897;28;20202;-63
2022/12/09 04:43:21;;;;;;;0.40;0.40;;;14.30;80.70;;;;;;5055103;28;20221;-62
2022/12/09 04:46:12;;;;;;;3.40;2.90;;;14.30;80.80;;;;;;5054095;28;20193;-63
2022/12/09 04:49:00;;;;;;;0.40;0.40;;;14.20;80.60;;;;;;5054662;28;20682;-62
2022/12/09 04:51:50;;;;;;;0.60;0.60;;;14.20;80.70;;;;;;5091175;22;21247;-62
2022/12/09 04:54:38;;;;;;;0.40;0.40;;;14.20;80.80;;;;;;5134463;27;20215;-63
2022/12/09 04:57:28;;;;;;;0.40;0.40;;;14.10;80.90;;;;;;5132578;27;20283;-62
2022/12/09 05:00:18;;;;;;;0.40;0.40;;;14.10;80.90;;;;;;5134136;27;20675;-62
2022/12/09 05:03:06;;;;;;;0.40;0.40;;;14.00;80.70;;;;;;5133310;27;20246;-62
2022/12/09 05:05:54;;;;;;;0.40;0.40;;;14.00;80.90;;;;;;5133687;27;20277;-63
2022/12/09 05:08:45;;;;;;;0.40;0.40;;;14.00;80.90;;;;;;5133666;27;20216;-62
2022/12/09 05:11:33;;;;;;;0.70;0.70;;;14.00;81.10;;;;;;5134730;27;20203;-62
2022/12/09 05:14:22;;;;;;;0.40;0.40;;;14.00;81.20;;;;;;5134617;27;20209;-62
2022/12/09 05:17:10;;;;;;;0.40;0.40;;;14.00;81.20;;;;;;5134655;27;20203;-61
2022/12/09 05:19:58;;;;;;;0.40;0.40;;;14.00;81.30;;;;;;5134212;27;20194;-62
2022/12/09 05:22:46;;;;;;;0.40;0.40;;;14.00;81.40;;;;;;5133176;27;20301;-62
2022/12/09 05:25:36;;;;;;;0.40;0.40;;;14.00;81.40;;;;;;5133703;27;20232;-62
2022/12/09 05:28:27;;;;;;;1.57;1.57;;;14.00;81.90;;;;;;5134649;27;20277;-62
2022/12/09 05:31:18;;;;;;;0.60;0.60;;;14.00;81.40;;;;;;5132775;27;20220;-62
2022/12/09 05:34:07;;;;;;;0.40;0.40;;;14.00;81.30;;;;;;5134257;27;20206;-62
2022/12/09 05:36:55;;;;;;;0.40;0.40;;;14.10;81.50;;;;;;5133175;27;20218;-62
2022/12/09 05:39:43;;;;;;;0.40;0.40;;;14.10;80.90;;;;;;5132541;27;20277;-62
2022/12/09 05:42:33;;;;;;;0.40;0.40;;;14.10;80.40;;;;;;5132839;27;20303;-63
2022/12/09 05:45:28;;;;;;;0.40;0.40;;;14.10;81.20;;;;;;5133407;27;20198;-62
2022/12/09 05:48:16;;;;;;;0.40;0.40;;;14.10;81.00;;;;;;5133244;27;20574;-62
2022/12/09 05:51:07;;;;;;;0.70;0.70;;;14.10;80.90;;;;;;5131863;27;20204;-61
2022/12/09 05:53:57;;;;;;;0.40;0.40;;;14.10;81.10;;;;;;5112521;28;20281;-62
2022/12/09 05:56:45;;;;;;;0.40;0.40;;;14.10;80.90;;;;;;5106772;28;20225;-62
2022/12/09 05:59:37;;;;;;;0.40;0.40;;;14.10;80.90;;;;;;5092240;28;20221;-62
2022/12/09 06:02:25;;;;;;;0.40;0.40;;;14.10;81.00;;;;;;5092177;28;20220;-62
2022/12/09 06:05:14;;;;;;;0.40;0.40;;;14.00;80.80;;;;;;5092142;28;20199;-63
2022/12/09 06:08:04;;;;;;;0.40;0.40;;;14.00;81.00;;;;;;5091997;28;20196;-63
2022/12/09 06:10:54;;;;;;;0.40;0.40;;;14.00;80.90;;;;;;5092121;28;20203;-62
2022/12/09 06:13:43;;;;;;;0.87;0.87;;;14.00;81.00;;;;;;5091950;28;20215;-63
2022/12/09 06:16:33;;;;;;;0.40;0.40;;;13.90;80.90;;;;;;5092198;28;20227;-62
2022/12/09 06:19:22;;;;;;;0.40;0.40;;;13.90;81.20;;;;;;5091735;28;20200;-62
2022/12/09 06:22:10;;;;;;;0.50;0.50;;;13.90;81.20;;;;;;5091485;28;20220;-62
2022/12/09 06:24:58;;;;;;;0.40;0.40;;;13.90;81.20;;;;;;5092900;28;20257;-62
2022/12/09 06:27:46;;;;;;;0.40;0.40;;;13.80;81.60;;;;;;5091511;28;20281;-62
2022/12/09 06:30:35;;;;;;;0.40;0.40;;;13.90;81.50;;;;;;5092404;28;20270;-62
2022/12/09 06:33:26;;;;;;;0.40;0.40;;;13.90;82.00;;;;;;5091502;28;20243;-62
2022/12/09 06:36:34;;;;;;;0.40;0.40;;;14.00;82.20;;;;;;5092136;28;20799;-62
2022/12/09 06:39:22;;;;;;;0.40;0.40;;;14.10;81.90;;;;;;5092650;28;20203;-62
2022/12/09 06:42:11;;;;;;;0.40;0.40;;;14.30;81.80;;;;;;5091819;28;20222;-63
2022/12/09 06:44:59;;;;;;;0.40;0.40;;;14.30;81.60;;;;;;5092113;28;20608;-62
2022/12/09 06:47:48;;;;;;;0.40;0.40;;;14.40;81.50;;;;;;5092885;28;20196;-62
2022/12/09 06:50:38;;;;;;;0.40;0.40;;;14.40;81.30;;;;;;5092574;28;20756;-63
2022/12/09 06:53:26;;;;;;;0.40;0.40;;;14.50;81.10;;;;;;5092210;28;20776;-61
2022/12/09 06:56:15;;;;;;;0.50;0.50;;;14.40;81.00;;;;;;5090369;28;20216;-62
2022/12/09 06:59:06;;;;;;;0.40;0.40;;;14.40;80.60;;;;;;5092242;28;20206;-62
2022/12/09 07:01:54;;;;;;;2.47;2.38;;;14.50;80.80;;;;;;5094515;28;20302;-62
2022/12/09 07:04:43;;;;;;;0.40;0.40;;;14.40;80.40;;;;;;5095336;28;20583;-62
2022/12/09 07:07:33;;;;;;;0.40;0.40;;;14.50;80.50;;;;;;5095827;28;20776;-62
2022/12/09 07:10:22;;;;;;;0.40;0.40;;;14.50;80.50;;;;;;5096363;28;20200;-62
2022/12/09 07:13:10;;;;;;;0.40;0.40;;;14.50;80.60;;;;;;5096894;28;20249;-62
2022/12/09 07:15:59;;;;;;;0.40;0.40;;;14.50;80.60;;;;;;5096168;28;20220;-63
2022/12/09 07:18:47;;;;;;;0.40;0.40;;;14.40;80.50;;;;;;5095262;28;20196;-62
2022/12/09 07:21:36;;;;;;;0.40;0.40;;;14.30;79.70;;;;;;5095971;28;20200;-62
2022/12/09 07:24:26;;;;;;;0.40;0.40;;;14.40;80.20;;;;;;5095257;28;20244;-62
2022/12/09 07:27:15;;;;;;;0.40;0.40;;;14.30;80.30;;;;;;5095605;28;20188;-62
2022/12/09 07:30:08;;;;;;;0.63;0.63;;;14.30;80.40;;;;;;5096432;28;20688;-62
2022/12/09 07:32:56;;;;;;;0.40;0.40;;;14.20;80.50;;;;;;5096257;28;20299;-62
2022/12/09 07:35:45;;;;;;;0.40;0.40;;;14.20;80.60;;;;;;5095803;28;20680;-62
2022/12/09 07:38:33;;;;;;;0.40;0.40;;;14.10;80.40;;;;;;5094929;28;20196;-63
2022/12/09 07:41:23;;;;;;;0.40;0.40;;;14.00;80.50;;;;;;5095255;28;20728;-61
2022/12/09 07:44:12;;;;;;;0.40;0.40;;;14.00;80.00;;;;;;5094141;28;20199;-61
2022/12/09 07:47:00;;;;;;;0.40;0.40;;;14.00;80.70;;;;;;5095683;28;20211;-63
2022/12/09 07:49:48;;;;;;;0.40;0.40;;;14.00;81.00;;;;;;5095703;28;20287;-62
2022/12/09 07:52:37;;;;;;;0.40;0.40;;;13.90;80.70;;;;;;5104503;28;20705;-63
2022/12/09 07:55:26;;;;;;;0.50;0.50;;;13.90;81.10;;;;;;5115720;28;20675;-63
2022/12/09 07:58:15;;;;;;;0.40;0.40;;;13.90;81.00;;;;;;5134159;27;20209;-63
2022/12/09 08:01:07;;;;;;;0.40;0.40;;;13.90;81.20;;;;;;5134579;27;20202;-62
2022/12/09 08:03:56;;;;;;;0.40;0.40;;;14.00;81.20;;;;;;5136167;27;20194;-63
2022/12/09 08:06:45;;;;;;;0.50;0.50;;;14.00;81.80;;;;;;5136009;27;20416;-63
2022/12/09 08:09:33;;;;;;;0.40;0.40;;;14.10;81.90;;;;;;5135782;27;20203;-63
2022/12/09 08:12:22;;;;;;;0.40;0.40;;;14.10;81.50;;;;;;5134754;27;20215;-62
2022/12/09 08:15:12;;;;;;;0.40;0.40;;;14.20;81.50;;;;;;5134996;27;20210;-63
2022/12/09 08:18:01;;;;;;;0.40;0.40;;;14.20;81.10;;;;;;5135487;27;20313;-62
2022/12/09 08:20:50;;;;;;;0.40;0.40;;;14.30;81.20;;;;;;5134154;27;20199;-63
2022/12/09 08:23:39;;;;;;;0.40;0.40;;;14.30;80.90;;;;;;5135282;27;20223;-63
2022/12/09 08:26:30;;;;;;;0.40;0.40;;;14.30;80.40;;;;;;5134350;27;20205;-63
2022/12/09 08:29:19;;;;;;;0.40;0.40;;;14.30;80.60;;;;;;5134566;27;20203;-63
2022/12/09 08:32:09;;;;;;;0.40;0.40;;;14.30;80.90;;;;;;5133627;27;20211;-62
2022/12/09 08:34:57;;;;;;;0.40;0.40;;;14.30;80.70;;;;;;5134077;27;20203;-63
2022/12/09 08:37:46;;;;;;;0.40;0.40;;;14.30;80.60;;;;;;5134819;27;20229;-63
2022/12/09 08:40:35;;;;;;;0.40;0.40;;;14.30;80.40;;;;;;5134826;27;20682;-63
2022/12/09 08:43:23;;;;;;;0.40;0.40;;;14.30;80.40;;;;;;5134143;27;20225;-63
2022/12/09 08:46:12;;;;;;;0.40;0.40;;;14.20;80.40;;;;;;5133691;27;20199;-63
2022/12/09 08:49:02;;;;;;;0.45;0.45;;;14.20;80.10;;;;;;5134572;27;20678;-63
2022/12/09 08:51:53;;;;;;;0.40;0.40;;;14.20;80.20;;;;;;5133664;27;20227;-63
2022/12/09 08:54:41;;;;;;;0.40;0.40;;;14.10;80.10;;;;;;5135322;27;20198;-63
2022/12/09 08:57:30;;;;;;;0.40;0.40;;;14.10;80.50;;;;;;5122644;27;20238;-63
2022/12/09 09:00:19;;;;;;;0.40;0.40;;;14.00;80.20;;;;;;5114531;28;20226;-62
2022/12/09 09:03:07;;;;;;;0.40;0.40;;;14.00;80.40;;;;;;5114924;28;20211;-63
2022/12/09 09:06:02;;;;;;;0.40;0.40;;;14.00;80.40;;;;;;5113623;28;20279;-61
2022/12/09 09:08:57;;;;;;;0.40;0.40;;;13.90;80.20;;;;;;5113074;28;20210;-63
2022/12/09 09:11:46;;;;;;;0.40;0.40;;;13.90;80.60;;;;;;5112956;28;20223;-63
2022/12/09 09:14:35;;;;;;;0.40;0.40;;;13.90;80.10;;;;;;5113164;28;20279;-62
2022/12/09 09:17:23;;;;;;;0.40;0.40;;;13.80;80.40;;;;;;5113835;28;20219;-63
2022/12/09 09:20:12;;;;;;;0.40;0.40;;;13.80;80.70;;;;;;5112889;28;20203;-63
2022/12/09 09:23:03;;;;;;;0.40;0.40;;;13.80;80.20;;;;;;5114656;28;20252;-62
2022/12/09 09:25:52;;;;;;;0.40;0.40;;;13.80;80.80;;;;;;5123889;28;20222;-63
2022/12/09 09:28:41;;;;;;;0.40;0.40;;;13.80;80.70;;;;;;5124623;28;20217;-62
2022/12/09 09:31:29;;;;;;;0.40;0.40;;;13.80;81.20;;;;;;5124878;28;20223;-62
2022/12/09 09:34:18;;;;;;;0.40;0.40;;;13.80;81.60;;;;;;5113387;28;20217;-62
2022/12/09 09:37:07;;;;;;;0.40;0.40;;;13.90;81.80;;;;;;5112608;28;20250;-63
2022/12/09 09:39:56;;;;;;;0.40;0.40;;;14.00;81.70;;;;;;5112919;28;20233;-63
2022/12/09 09:42:48;;;;;;;0.40;0.40;;;14.10;81.40;;;;;;5113134;28;20313;-63
2022/12/09 09:45:36;;;;;;;0.40;0.40;;;14.10;81.40;;;;;;5112612;28;20200;-63
2022/12/09 09:48:29;;;;;;;0.40;0.40;;;14.20;81.10;;;;;;5112832;28;20207;-63
2022/12/09 09:51:20;;;;;;;0.40;0.40;;;14.20;80.90;;;;;;5112156;28;20195;-61
2022/12/09 09:54:12;;;;;;;0.40;0.40;;;14.20;80.90;;;;;;5112881;28;20195;-62
2022/12/09 09:57:10;;;;;;;0.40;0.40;;;14.30;80.60;;;;;;5120001;27;20210;-63
2022/12/09 10:00:06;;;;;;;1.13;1.13;;;14.30;80.40;;;;;;5132521;27;20195;-62
2022/12/09 10:02:59;;;;;;;0.40;0.40;;;14.30;80.40;;;;;;5133438;27;20446;-63
2022/12/09 10:05:52;;;;;;;0.40;0.40;;;14.30;80.50;;;;;;5134425;27;20194;-63
2022/12/09 10:08:54;;;;;;;0.40;0.40;;;14.30;80.40;;;;;;5132951;27;20206;-63
2022/12/09 10:11:54;;;;;;;0.40;0.40;;;14.30;80.30;;;;;;5132566;27;20271;-62
2022/12/09 10:14:53;;;;;;;0.40;0.40;;;14.30;80.10;;;;;;5133536;27;20200;-63
2022/12/09 10:17:52;;;;;;;0.40;0.40;;;14.30;80.10;;;;;;5132342;27;20301;-63
2022/12/09 10:20:41;;;;;;;0.40;0.40;;;14.30;79.90;;;;;;5132802;27;20283;-63
2022/12/09 10:23:31;;;;;;;0.50;0.50;;;14.20;79.80;;;;;;5133561;27;20698;-63
2022/12/09 10:26:23;;;;;;;0.40;0.40;;;14.20;79.90;;;;;;5132222;27;20630;-63
2022/12/09 10:29:30;;;;;;;0.40;0.40;;;14.10;79.80;;;;;;5132301;27;20226;-62
2022/12/09 10:32:23;;;;;;;0.40;0.40;;;14.10;79.90;;;;;;5132197;27;20228;-62
2022/12/09 10:35:14;;;;;;;0.40;0.40;;;14.10;80.00;;;;;;5132871;27;20277;-65
2022/12/09 10:38:08;;;;;;;0.40;0.40;;;14.00;79.60;;;;;;5133223;28;20222;-62
2022/12/09 10:41:02;;;;;;;0.40;0.40;;;14.00;79.90;;;;;;5132299;28;20690;-62
2022/12/09 10:43:50;;;;;;;0.40;0.40;;;14.00;80.00;;;;;;5132587;28;20492;-62
2022/12/09 10:46:38;;;;;;;0.40;0.40;;;14.00;79.90;;;;;;5131894;28;20635;-62
2022/12/09 10:49:29;;;;;;;0.40;0.40;;;14.00;79.70;;;;;;5133582;28;20202;-63
2022/12/09 10:52:22;;;;;;;0.40;0.40;;;14.00;80.40;;;;;;5133771;28;20233;-62
2022/12/09 10:55:22;;;;;;;0.40;0.40;;;14.00;80.10;;;;;;5132040;28;20273;-62
2022/12/09 10:58:16;;;;;;;0.40;0.40;;;14.00;80.70;;;;;;5114288;28;20222;-62
2022/12/09 11:01:09;;;;;;;0.40;0.40;;;14.00;80.50;;;;;;5111039;28;20304;-62
2022/12/09 11:03:57;;;;;;;0.40;0.40;;;14.00;80.50;;;;;;5111660;28;20245;-62
2022/12/09 11:06:47;;;;;;;0.40;0.40;;;14.00;80.60;;;;;;5112600;28;20659;-62
2022/12/09 11:09:48;;;;;;;0.40;0.40;;;14.00;80.90;;;;;;5111545;28;20198;-64
2022/12/09 11:12:38;;;;;;;0.40;0.40;;;14.00;80.70;;;;;;5111723;28;20219;-62
2022/12/09 11:15:34;;;;;;;0.43;0.43;;;14.00;80.70;;;;;;5111676;28;20283;-63
2022/12/09 11:18:26;;;;;;;0.40;0.40;;;14.00;80.50;;;;;;5111505;28;20267;-62
2022/12/09 11:21:31;;;;;;;0.65;0.65;;;14.10;80.60;;;;;;5111104;28;20195;-62
2022/12/09 11:24:23;;;;;;;0.40;0.40;;;14.10;80.30;;;;;;5112542;28;20199;-62
2022/12/09 11:27:27;;;;;;;0.40;0.40;;;14.10;80.50;;;;;;5110809;28;20195;-62
2022/12/09 11:30:18;;;;;;;1.33;1.33;;;14.10;80.10;;;;;;5111077;28;20198;-62
2022/12/09 11:33:23;;;;;;;0.40;0.40;;;14.00;80.20;;;;;;5111850;28;20219;-63
2022/12/09 11:36:25;;;;;;;0.40;0.40;;;14.00;80.20;;;;;;5112345;28;20206;-62
2022/12/09 11:39:25;;;;;;;0.40;0.40;;;14.00;80.20;;;;;;5110759;28;20238;-62
2022/12/09 11:42:17;;;;;;;0.40;0.40;;;14.00;80.10;;;;;;5110961;28;20284;-62
2022/12/09 11:45:17;;;;;;;0.40;0.40;;;14.00;79.90;;;;;;5112406;28;20688;-62
2022/12/09 11:48:12;;;;;;;0.40;0.40;;;14.00;79.90;;;;;;5111926;28;20275;-62
2022/12/09 11:51:22;;;;;;;0.40;0.40;;;14.00;79.80;;;;;;5115049;28;20195;-62
2022/12/09 11:54:17;;;;;;;0.40;0.40;;;14.00;79.90;;;;;;5114760;28;20323;-62
2022/12/09 11:57:19;;;;;;;0.40;0.40;;;14.00;79.90;;;;;;5124681;27;20327;-62
2022/12/09 12:00:17;;;;;;;0.40;0.40;;;13.90;80.00;;;;;;5134805;27;20691;-62
2022/12/09 12:03:14;;;;;;;6.40;6.03;;;13.90;80.10;;;;;;5135514;27;20238;-63
2022/12/09 12:06:06;;;;;;;0.40;0.40;;;13.90;80.00;;;;;;5135215;27;20210;-63
2022/12/09 12:09:00;;;;;;;0.40;0.40;;;14.00;80.30;;;;;;5135456;27;20232;-63
2022/12/09 12:11:59;;;;;;;0.40;0.40;;;13.90;80.60;;;;;;5134679;27;20218;-63
2022/12/09 12:14:48;;;;;;;0.40;0.40;;;14.00;80.50;;;;;;5136125;27;20201;-62
2022/12/09 12:17:41;;;;;;;0.40;0.40;;;14.00;80.50;;;;;;5135957;27;20330;-62
2022/12/09 12:20:42;;;;;;;0.50;0.50;;;14.00;80.20;;;;;;5135710;27;20191;-61
2022/12/09 12:23:47;;;;;;;0.40;0.40;;;14.00;80.60;;;;;;5134662;27;20298;-61
2022/12/09 12:26:40;;;;;;;0.40;0.40;;;14.00;81.10;;;;;;5134480;27;20260;-61
2022/12/09 12:29:39;;;;;;;10.13;9.63;;;14.00;80.50;;;;;;5134263;27;20302;-61
2022/12/09 12:32:44;;;;;;;0.40;0.40;;;14.00;80.00;;;;;;5135212;27;20275;-61
2022/12/09 12:35:59;;;;;;;0.40;0.40;;;14.00;80.40;;;;;;5135076;27;20620;-62
2022/12/09 12:39:02;;;;;;;0.40;0.40;;;14.00;80.20;;;;;;5134729;27;20324;-61
2022/12/09 12:41:55;;;;;;;0.40;0.40;;;14.00;80.40;;;;;;5134809;27;20768;-61
2022/12/09 12:48:03;;;;;;;0.40;0.40;;;14.00;80.30;;;;;;5134419;27;20205;-61
2022/12/09 12:51:02;;;;;;;0.40;0.40;;;14.00;80.20;;;;;;5134428;27;20206;-62
2022/12/09 12:54:03;;;;;;;0.40;0.40;;;14.00;80.40;;;;;;5134464;27;20226;-61
2022/12/09 12:57:01;;;;;;;0.40;0.40;;;13.90;80.20;;;;;;5127819;27;20247;-61
2022/12/09 13:00:05;;;;;;;0.40;0.40;;;13.90;80.40;;;;;;5112407;28;20606;-61
2022/12/09 13:03:02;;;;;;;0.40;0.40;;;13.90;80.30;;;;;;5114305;28;20594;-61
2022/12/09 13:05:58;;;;;;;0.40;0.40;;;13.80;80.40;;;;;;5113540;28;20706;-61
2022/12/09 13:08:53;;;;;;;0.40;0.40;;;13.80;80.40;;;;;;5113641;28;20276;-61
2022/12/09 13:12:00;;;;;;;0.40;0.40;;;13.90;80.90;;;;;;5113319;28;20215;-61
2022/12/09 13:14:53;;;;;;;0.67;0.67;;;13.90;81.30;;;;;;5113126;28;20648;-61
2022/12/09 13:17:43;;;;;;;0.40;0.40;;;14.00;81.60;;;;;;5114080;28;20857;-61
2022/12/09 13:20:39;;;;;;;0.40;0.40;;;14.20;81.60;;;;;;5113393;28;20268;-61
2022/12/09 13:23:44;;;;;;;0.40;0.40;;;14.30;81.30;;;;;;5130549;28;20258;-61
2022/12/09 13:26:42;;;;;;;0.40;0.40;;;14.40;81.10;;;;;;5130256;28;20281;-62
2022/12/09 13:29:39;;;;;;;0.40;0.40;;;14.50;80.80;;;;;;5130628;28;20232;-61
2022/12/09 13:32:58;;;;;;;0.40;0.40;;;14.50;80.80;;;;;;5127624;28;20282;-62
2022/12/09 13:35:53;;;;;;;0.40;0.40;;;14.60;80.70;;;;;;5117299;28;20200;-61
2022/12/09 13:38:43;;;;;;;0.40;0.40;;;14.60;80.40;;;;;;5115880;28;20215;-60
2022/12/09 13:44:50;;;;;;;0.40;0.40;;;14.60;80.40;;;;;;5113406;28;20227;-61
2022/12/09 13:47:38;;;;;;;0.50;0.50;;;14.60;80.20;;;;;;5113750;28;20773;-61
2022/12/09 13:50:30;;;;;;;0.40;0.40;;;14.60;79.70;;;;;;5112775;28;20278;-61
2022/12/09 13:53:25;;;;;;;0.40;0.40;;;14.50;79.90;;;;;;5112183;28;20348;-61
2022/12/09 13:56:26;;;;;;;0.40;0.40;;;14.50;79.90;;;;;;5114661;27;20679;-61
2022/12/09 13:59:38;;;;;;;0.40;0.40;;;14.50;79.80;;;;;;5133507;27;20686;-61
2022/12/09 14:02:34;;;;;;;0.40;0.40;;;14.50;79.40;;;;;;5132683;27;20294;-61
2022/12/09 14:05:25;;;;;;;0.40;0.40;;;14.50;79.70;;;;;;5132911;27;20206;-61
2022/12/09 14:08:21;;;;;;;0.40;0.40;;;14.40;79.60;;;;;;5132910;27;20233;-61
2022/12/09 14:11:45;;;;;;;0.40;0.40;;;14.30;78.80;;;;;;5132398;27;20219;-61
2022/12/09 14:14:48;;;;;;;0.40;0.40;;;14.30;79.40;;;;;;5133120;27;20203;-62
2022/12/09 14:18:01;;;;;;;1.07;1.07;;;14.30;79.20;;;;;;5132762;27;20281;-61
2022/12/09 14:21:24;;;;;;;0.40;0.40;;;14.20;79.60;;;;;;5132512;27;20305;-61
2022/12/09 14:24:34;;;;;;;0.40;0.40;;;14.10;78.90;;;;;;5133837;27;20198;-61
2022/12/09 14:27:26;;;;;;;0.40;0.40;;;14.10;79.50;;;;;;5133250;27;20281;-61
2022/12/09 14:30:53;;;;;;;0.40;0.40;;;14.00;79.60;;;;;;5133018;27;20278;-61
2022/12/09 14:33:44;;;;;;;0.40;0.40;;;14.00;79.80;;;;;;5126375;27;20224;-61
2022/12/09 14:36:34;;;;;;;0.40;0.40;;;13.90;79.80;;;;;;5134072;28;20625;-61
2022/12/09 14:39:28;;;;;;;0.40;0.40;;;13.90;80.60;;;;;;5133393;28;20766;-61
2022/12/09 14:42:29;;;;;;;0.40;0.40;;;14.00;81.00;;;;;;5133461;28;20264;-61
2022/12/09 14:45:27;;;;;;;0.40;0.40;;;14.10;80.90;;;;;;5132106;28;20231;-61
2022/12/09 14:48:20;;;;;;;0.40;0.40;;;14.20;80.60;;;;;;5133211;28;20238;-61
2022/12/09 14:51:16;;;;;;;0.40;0.40;;;14.30;80.40;;;;;;5132728;28;20274;-62
2022/12/09 14:54:12;;;;;;;0.40;0.40;;;14.40;80.20;;;;;;5132021;28;20204;-61
2022/12/09 14:57:03;;;;;;;0.40;0.40;;;14.40;79.90;;;;;;5124789;28;20277;-62
2022/12/09 14:59:55;;;;;;;0.70;0.70;;;14.50;79.90;;;;;;5110965;28;20797;-62
2022/12/09 15:02:51;;;;;;;0.40;0.40;;;14.50;79.70;;;;;;5112489;28;20237;-62